Weather at Datadawai Airport

Public forecast

Using degrees Celsius for public forecast. Weather courtesy of forecast.io.

Closest aviation weather report (METAR) to Datadawai Airport

Closest report is Sibu Airport, 175.9 nm (325.7 km) WNW.

2024/05/21 17:00 (retrieved 15 minutes ago)

WBGS 211700Z VRB02KT 9999 SCT018 26/25 Q1008

Closest aviation forecast (TAF) to Datadawai Airport

Closest forecast is Sibu Airport, 175.9 nm (325.7 km) WNW.

2024/05/21 12:00 (retrieved 5 hours ago)

TAF WBGS 211100Z 2112/2212 VRB03KT 9999 FEW018 TEMPO 2206/2209 5000 TSRA FEW015CB SCT018